createdAt,value
2023-04-12T00:01:59.267Z,11.77
2023-04-12T00:04:28.921Z,14.27
2023-04-12T00:06:56.575Z,21.30
2023-04-12T00:09:23.539Z,15.20
2023-04-12T00:11:50.585Z,17.07
2023-04-12T00:14:17.490Z,12.83
2023-04-12T00:16:44.451Z,13.10
2023-04-12T00:19:11.580Z,14.70
2023-04-12T00:21:38.538Z,16.40
2023-04-12T00:24:05.632Z,12.90
2023-04-12T00:26:32.564Z,14.10
2023-04-12T00:28:59.496Z,12.80
2023-04-12T00:31:26.668Z,10.87
2023-04-12T00:33:53.709Z,12.43
2023-04-12T00:36:21.218Z,13.40
2023-04-12T00:38:48.190Z,13.77
2023-04-12T00:41:15.794Z,12.47
2023-04-12T00:43:42.882Z,14.33
2023-04-12T00:46:11.765Z,12.43
2023-04-12T00:48:40.104Z,14.63
2023-04-12T00:51:07.805Z,12.07
2023-04-12T00:53:35.742Z,15.43
2023-04-12T00:56:04.300Z,12.00
2023-04-12T00:58:31.933Z,11.90
2023-04-12T01:00:59.056Z,11.53
2023-04-12T01:03:28.186Z,12.67
2023-04-12T01:06:32.407Z,12.23
2023-04-12T01:09:20.549Z,11.53
2023-04-12T01:12:02.342Z,13.20
2023-04-12T01:14:43.198Z,13.73
2023-04-12T01:17:14.445Z,12.47
2023-04-12T01:19:59.140Z,11.47
2023-04-12T01:22:50.781Z,11.50
2023-04-12T01:25:45.912Z,11.00
2023-04-12T01:28:16.104Z,13.67
2023-04-12T01:30:44.114Z,14.90
2023-04-12T01:33:12.427Z,13.87
2023-04-12T01:35:40.931Z,11.57
2023-04-12T01:38:09.571Z,11.40
2023-04-12T01:40:38.018Z,10.57
2023-04-12T01:43:09.361Z,10.70
2023-04-12T01:45:36.649Z,10.27
2023-04-12T01:48:06.236Z,10.57
2023-04-12T01:51:06.369Z,9.77
2023-04-12T01:53:58.147Z,11.30
2023-04-12T01:56:30.842Z,10.77
2023-04-12T01:58:59.122Z,9.93
2023-04-12T02:01:29.283Z,8.57
2023-04-12T02:04:01.041Z,10.10
2023-04-12T02:06:28.582Z,11.13
2023-04-12T02:09:02.217Z,11.53
2023-04-12T02:11:29.719Z,10.30
2023-04-12T02:13:56.937Z,10.07
2023-04-12T02:16:25.014Z,12.50
2023-04-12T02:18:52.180Z,13.73
2023-04-12T02:21:19.213Z,11.33
2023-04-12T02:23:46.243Z,11.73
2023-04-12T02:26:13.183Z,11.77
2023-04-12T02:28:40.224Z,9.07
2023-04-12T02:31:08.395Z,11.00
2023-04-12T02:33:35.725Z,16.83
2023-04-12T02:36:02.776Z,6.77
2023-04-12T02:38:31.360Z,9.03
2023-04-12T02:40:58.330Z,9.13
2023-04-12T02:43:25.785Z,12.03
2023-04-12T02:45:52.771Z,13.53
2023-04-12T02:48:19.779Z,13.23
2023-04-12T02:50:46.693Z,13.13
2023-04-12T02:53:13.578Z,15.80
2023-04-12T02:55:40.500Z,16.97
2023-04-12T02:58:07.475Z,16.07
2023-04-12T03:00:34.399Z,14.77
2023-04-12T03:03:03.741Z,14.60
2023-04-12T03:05:30.913Z,14.00
2023-04-12T03:07:57.896Z,14.57
2023-04-12T03:10:24.837Z,16.90
2023-04-12T03:12:51.834Z,14.87
2023-04-12T03:15:18.881Z,18.67
2023-04-12T03:17:45.829Z,18.77
2023-04-12T03:20:13.528Z,15.10
2023-04-12T03:22:40.584Z,15.33
2023-04-12T03:25:09.756Z,14.93
2023-04-12T03:27:36.728Z,16.70
2023-04-12T03:30:04.077Z,18.90
2023-04-12T03:32:31.692Z,17.27
2023-04-12T03:34:58.636Z,16.63
2023-04-12T03:37:26.205Z,18.27
2023-04-12T03:39:53.172Z,17.10
2023-04-12T03:42:32.223Z,18.27
2023-04-12T03:45:01.268Z,15.37
2023-04-12T03:47:28.381Z,15.17
2023-04-12T03:50:10.429Z,16.37
2023-04-12T03:52:38.561Z,19.90
2023-04-12T03:55:07.460Z,15.60
2023-04-12T03:57:35.034Z,14.90
2023-04-12T04:00:02.640Z,15.77
2023-04-12T04:02:30.059Z,16.20
2023-04-12T04:04:57.238Z,16.47
2023-04-12T04:07:24.173Z,14.10
2023-04-12T04:09:51.138Z,17.67
2023-04-12T04:12:18.080Z,17.70
2023-04-12T04:14:45.096Z,16.77
2023-04-12T04:17:12.045Z,18.90
2023-04-12T04:19:39.208Z,19.20
2023-04-12T04:22:06.501Z,18.17
2023-04-12T04:24:34.258Z,16.63
2023-04-12T04:27:01.152Z,17.00
2023-04-12T04:29:29.267Z,15.17
2023-04-12T04:31:57.478Z,16.83
2023-04-12T04:34:25.578Z,17.07
2023-04-12T04:36:52.859Z,14.70
2023-04-12T04:39:20.084Z,14.03
2023-04-12T04:41:47.059Z,15.93
2023-04-12T04:44:14.407Z,17.50
2023-04-12T04:46:41.493Z,16.07
2023-04-12T04:49:08.457Z,15.30
2023-04-12T04:51:36.675Z,17.50
2023-04-12T04:54:03.761Z,16.87
2023-04-12T04:56:31.064Z,15.50
2023-04-12T04:58:58.351Z,16.67
2023-04-12T05:01:26.227Z,18.03
2023-04-12T05:03:55.577Z,16.27
2023-04-12T05:06:23.144Z,14.87
2023-04-12T05:08:50.235Z,16.87
2023-04-12T05:11:18.528Z,15.47
2023-04-12T05:13:45.460Z,15.83
2023-04-12T05:16:12.537Z,17.40
2023-04-12T05:18:39.472Z,17.63
2023-04-12T05:21:06.659Z,16.60
2023-04-12T05:23:37.141Z,17.13
2023-04-12T05:26:04.557Z,18.20
2023-04-12T05:28:31.536Z,16.97
2023-04-12T05:30:58.661Z,13.97
2023-04-12T05:33:26.288Z,17.13
2023-04-12T05:35:53.401Z,18.80
2023-04-12T05:38:20.370Z,14.20
2023-04-12T05:40:50.071Z,14.77
2023-04-12T05:43:17.818Z,17.33
2023-04-12T05:45:44.739Z,14.27
2023-04-12T05:48:11.734Z,17.07
2023-04-12T05:50:38.760Z,14.83
2023-04-12T05:53:06.051Z,14.43
2023-04-12T05:55:33.566Z,14.80
2023-04-12T05:58:01.218Z,14.77
2023-04-12T06:00:28.979Z,14.37
2023-04-12T06:02:58.494Z,14.13
2023-04-12T06:05:25.692Z,17.67
2023-04-12T06:07:52.677Z,13.57
2023-04-12T06:10:19.886Z,14.10
2023-04-12T06:12:47.768Z,13.27
2023-04-12T06:15:14.679Z,13.87
2023-04-12T06:17:41.600Z,14.17
2023-04-12T06:20:09.727Z,13.47
2023-04-12T06:22:37.759Z,14.27
2023-04-12T06:25:05.362Z,14.50
2023-04-12T06:27:32.388Z,16.30
2023-04-12T06:29:59.372Z,13.57
2023-04-12T06:32:26.525Z,17.77
2023-04-12T06:34:53.655Z,13.77
2023-04-12T06:37:21.754Z,13.10
2023-04-12T06:39:48.729Z,14.77
2023-04-12T06:42:16.063Z,13.63
2023-04-12T06:44:43.042Z,15.37
2023-04-12T06:47:10.073Z,13.07
2023-04-12T06:49:37.978Z,12.97
2023-04-12T06:52:05.536Z,15.57
2023-04-12T06:54:32.934Z,12.90
2023-04-12T06:57:01.728Z,13.83
2023-04-12T06:59:29.052Z,16.30
2023-04-12T07:01:56.131Z,13.10
2023-04-12T07:04:23.131Z,14.60
2023-04-12T07:06:50.437Z,14.07
2023-04-12T07:09:17.808Z,12.77
2023-04-12T07:11:44.996Z,11.67
2023-04-12T07:14:11.950Z,15.17
2023-04-12T07:16:38.841Z,11.40
2023-04-12T07:19:05.785Z,14.13
2023-04-12T07:21:32.880Z,13.67
2023-04-12T07:23:59.886Z,15.80
2023-04-12T07:26:27.123Z,10.60
2023-04-12T07:28:54.905Z,12.27
2023-04-12T07:31:22.406Z,10.10
2023-04-12T07:33:49.581Z,13.53
2023-04-12T07:36:17.501Z,14.87
2023-04-12T07:38:44.487Z,13.97
2023-04-12T07:41:11.389Z,11.63
2023-04-12T07:43:38.299Z,11.13
2023-04-12T07:46:08.457Z,14.03
2023-04-12T07:48:35.747Z,13.10
2023-04-12T07:51:02.780Z,14.57
2023-04-12T07:53:29.919Z,11.27
2023-04-12T07:55:57.011Z,12.57
2023-04-12T07:58:24.887Z,11.40
2023-04-12T08:00:52.023Z,12.30
2023-04-12T08:03:19.494Z,10.90
2023-04-12T08:05:49.636Z,12.13
2023-04-12T08:08:16.700Z,11.13
2023-04-12T08:10:43.662Z,14.20
2023-04-12T08:13:10.667Z,11.27
2023-04-12T08:15:37.801Z,11.30
2023-04-12T08:18:04.944Z,11.47
2023-04-12T08:20:32.811Z,12.80
2023-04-12T08:22:59.744Z,10.97
2023-04-12T08:25:27.092Z,12.50
2023-04-12T08:27:54.057Z,11.87
2023-04-12T08:30:26.650Z,9.70
2023-04-12T08:32:54.114Z,12.90
2023-04-12T08:35:22.365Z,11.67
2023-04-12T08:37:49.787Z,11.77
2023-04-12T08:40:17.203Z,12.30
2023-04-12T08:42:44.275Z,10.70
2023-04-12T08:45:12.435Z,12.17
2023-04-12T08:47:44.379Z,12.60
2023-04-12T08:50:15.574Z,13.00
2023-04-12T08:52:43.324Z,12.93
2023-04-12T08:55:12.889Z,12.23
2023-04-12T08:57:42.027Z,11.30
2023-04-12T09:00:10.829Z,11.83
2023-04-12T09:02:38.617Z,12.17
2023-04-12T09:05:07.058Z,10.73
2023-04-12T09:07:34.358Z,11.53
2023-04-12T09:10:02.002Z,11.07
2023-04-12T09:12:29.067Z,9.40
2023-04-12T09:15:09.297Z,9.57
2023-04-12T09:17:37.159Z,10.43
2023-04-12T09:20:23.637Z,11.67
2023-04-12T09:22:52.726Z,11.30
2023-04-12T09:25:34.990Z,10.17
2023-04-12T09:28:02.001Z,12.33
2023-04-12T09:30:28.914Z,11.30
2023-04-12T09:32:56.018Z,11.07
2023-04-12T09:35:35.799Z,12.43
2023-04-12T09:38:11.915Z,11.33
2023-04-12T09:40:39.220Z,10.73
2023-04-12T09:43:07.111Z,11.37
2023-04-12T09:45:39.071Z,10.17
2023-04-12T09:48:07.229Z,13.70
2023-04-12T09:50:34.392Z,12.43
2023-04-12T09:53:03.387Z,9.40
2023-04-12T09:55:32.410Z,12.07
2023-04-12T09:58:04.189Z,12.73
2023-04-12T10:00:34.379Z,10.13
2023-04-12T10:03:02.114Z,11.80
2023-04-12T10:05:30.295Z,12.57
2023-04-12T10:07:58.138Z,11.27
2023-04-12T10:10:25.145Z,11.37
2023-04-12T10:12:52.141Z,10.30
2023-04-12T10:15:21.901Z,10.13
2023-04-12T10:17:53.624Z,11.10
2023-04-12T10:20:24.765Z,11.03
2023-04-12T10:22:53.741Z,11.20
2023-04-12T10:25:25.865Z,14.77
2023-04-12T10:27:53.730Z,10.97
2023-04-12T10:30:24.149Z,12.33
2023-04-12T10:33:03.718Z,10.00
2023-04-12T10:35:53.955Z,11.07
2023-04-12T10:38:21.520Z,12.23
2023-04-12T10:41:06.997Z,11.73
2023-04-12T10:43:34.011Z,11.70
2023-04-12T10:46:05.144Z,11.50
2023-04-12T10:48:37.804Z,12.40
2023-04-12T10:51:28.754Z,11.47
2023-04-12T10:54:07.918Z,14.07
2023-04-12T10:56:39.593Z,11.33
2023-04-12T10:59:07.939Z,11.50
2023-04-12T11:01:38.450Z,11.13
2023-04-12T11:04:22.271Z,12.03
2023-04-12T11:07:10.065Z,11.17
2023-04-12T11:09:36.995Z,11.17
2023-04-12T11:12:04.015Z,10.17
2023-04-12T11:14:52.052Z,10.03
2023-04-12T11:17:20.508Z,10.83
2023-04-12T11:19:54.234Z,10.77
2023-04-12T11:22:22.775Z,10.70
2023-04-12T11:24:52.425Z,11.07
2023-04-12T11:27:21.090Z,11.43
2023-04-12T11:29:56.132Z,9.60
2023-04-12T11:32:25.087Z,10.17
2023-04-12T11:34:53.530Z,9.87
2023-04-12T11:37:21.696Z,11.80
2023-04-12T11:39:52.097Z,14.47
2023-04-12T11:42:21.298Z,9.53
2023-04-12T11:44:56.816Z,12.87
2023-04-12T11:47:26.944Z,10.83
2023-04-12T11:49:56.149Z,12.17
2023-04-12T11:52:30.293Z,10.53
2023-04-12T11:55:01.820Z,14.23
2023-04-12T11:57:29.273Z,14.53
2023-04-12T11:59:59.287Z,15.53
2023-04-12T12:02:29.862Z,11.47
2023-04-12T12:04:59.393Z,11.33
2023-04-12T12:07:26.782Z,10.53
2023-04-12T12:09:54.358Z,10.73
2023-04-12T12:12:24.145Z,11.13
2023-04-12T12:14:51.232Z,10.03
2023-04-12T12:17:18.335Z,10.37
2023-04-12T12:19:46.329Z,8.87
2023-04-12T12:22:18.024Z,9.10
2023-04-12T12:24:53.107Z,8.60
2023-04-12T12:27:25.029Z,9.57
2023-04-12T12:29:54.579Z,9.90
2023-04-12T12:32:23.388Z,11.00
2023-04-12T12:34:55.809Z,9.70
2023-04-12T12:37:30.349Z,9.03
2023-04-12T12:40:13.713Z,9.90
2023-04-12T12:42:51.852Z,9.57
2023-04-12T12:45:23.131Z,8.80
2023-04-12T12:47:52.898Z,9.67
2023-04-12T12:50:24.740Z,8.53
2023-04-12T12:52:52.946Z,8.30
2023-04-12T12:55:21.335Z,9.17
2023-04-12T12:58:06.032Z,8.80
2023-04-12T13:00:34.170Z,9.50
2023-04-12T13:03:03.582Z,8.87
2023-04-12T13:05:30.913Z,8.87
2023-04-12T13:07:57.880Z,8.67
2023-04-12T13:10:26.573Z,11.13
2023-04-12T13:12:53.752Z,8.03
2023-04-12T13:15:23.642Z,7.10
2023-04-12T13:17:55.301Z,7.90
2023-04-12T13:20:23.066Z,7.30
2023-04-12T13:22:52.192Z,7.57
2023-04-12T13:25:19.921Z,7.73
2023-04-12T13:27:49.068Z,10.53
2023-04-12T13:30:16.400Z,8.47
2023-04-12T13:32:44.815Z,7.93
2023-04-12T13:35:12.182Z,9.53
2023-04-12T13:37:39.416Z,7.87
2023-04-12T13:40:07.464Z,7.70
2023-04-12T13:42:34.723Z,7.53
2023-04-12T13:45:04.037Z,8.87
2023-04-12T13:47:31.881Z,9.47
2023-04-12T13:49:58.884Z,8.57
2023-04-12T13:52:25.877Z,7.93
2023-04-12T13:54:53.284Z,8.53
2023-04-12T13:57:20.627Z,9.73
2023-04-12T13:59:47.502Z,11.30
2023-04-12T14:02:14.743Z,8.37
2023-04-12T14:04:52.630Z,8.60
2023-04-12T14:07:20.625Z,9.50
2023-04-12T14:09:48.800Z,9.43
2023-04-12T14:12:16.090Z,8.77
2023-04-12T14:14:42.967Z,9.77
2023-04-12T14:17:09.967Z,8.83
2023-04-12T14:19:36.997Z,8.97
2023-04-12T14:22:04.021Z,9.43
2023-04-12T14:24:31.488Z,9.47
2023-04-12T14:27:00.897Z,9.83
2023-04-12T14:29:27.894Z,8.57
2023-04-12T14:31:54.842Z,8.97
2023-04-12T14:34:21.739Z,9.03
2023-04-12T14:36:48.639Z,10.43
2023-04-12T14:41:42.606Z,10.40
2023-04-12T14:44:09.554Z,9.00
2023-04-12T14:46:36.957Z,9.33
2023-04-12T14:49:03.909Z,8.40
2023-04-12T14:51:32.149Z,12.70
2023-04-12T14:53:59.337Z,8.77
2023-04-12T14:56:28.710Z,9.20
2023-04-12T14:58:57.794Z,9.13
2023-04-12T15:01:25.810Z,10.53
2023-04-12T15:03:55.083Z,8.97
2023-04-12T15:06:30.450Z,11.47
2023-04-12T15:08:57.577Z,12.97
2023-04-12T15:11:27.313Z,10.87
2023-04-12T15:13:55.452Z,9.57
2023-04-12T15:16:23.210Z,9.83
2023-04-12T15:18:51.798Z,8.70
2023-04-12T15:21:19.141Z,10.23
2023-04-12T15:23:47.364Z,11.17
2023-04-12T15:26:14.573Z,13.97
2023-04-12T15:28:42.456Z,12.57
2023-04-12T15:31:11.859Z,13.27
2023-04-12T15:33:38.828Z,9.97
2023-04-12T15:36:06.306Z,13.63
2023-04-12T15:38:40.828Z,11.80
2023-04-12T15:41:07.903Z,13.63
2023-04-12T15:43:35.360Z,9.50
2023-04-12T15:46:02.669Z,10.93
2023-04-12T15:48:29.896Z,10.87
2023-04-12T15:50:57.196Z,10.87
2023-04-12T15:53:27.344Z,10.07
2023-04-12T15:55:55.134Z,9.77
2023-04-12T15:58:27.028Z,11.27
2023-04-12T16:00:54.513Z,9.73
2023-04-12T16:03:26.239Z,10.57
2023-04-12T16:05:54.204Z,10.70
2023-04-12T16:08:22.230Z,11.33
2023-04-12T16:10:50.297Z,9.63
2023-04-12T16:13:17.307Z,10.23
2023-04-12T16:15:44.384Z,12.50
2023-04-12T16:18:11.931Z,10.97
2023-04-12T16:20:40.804Z,8.87
2023-04-12T16:23:07.842Z,10.40
2023-04-12T16:25:36.124Z,8.70
2023-04-12T16:28:03.589Z,8.63
2023-04-12T16:30:32.097Z,9.30
2023-04-12T16:32:59.350Z,9.10
2023-04-12T16:35:26.534Z,9.70
2023-04-12T16:37:54.308Z,10.70
2023-04-12T16:40:22.180Z,9.03
2023-04-12T16:42:49.181Z,9.33
2023-04-12T16:45:16.323Z,10.30
2023-04-12T16:47:46.921Z,10.87
2023-04-12T16:50:14.201Z,10.40
2023-04-12T16:52:41.966Z,8.50
2023-04-12T16:55:12.589Z,9.17
2023-04-12T16:57:41.553Z,9.13
2023-04-12T17:00:28.900Z,8.90
2023-04-12T17:02:56.047Z,13.20
2023-04-12T17:05:24.795Z,10.87
2023-04-12T17:07:54.199Z,8.83
2023-04-12T17:10:22.993Z,8.97
2023-04-12T17:12:54.723Z,9.83
2023-04-12T17:15:22.099Z,8.77
2023-04-12T17:17:51.656Z,9.90
2023-04-12T17:20:23.191Z,9.20
2023-04-12T17:22:51.010Z,10.53
2023-04-12T17:25:19.866Z,10.77
2023-04-12T17:27:48.248Z,9.47
2023-04-12T17:30:17.789Z,8.83
2023-04-12T17:32:48.402Z,9.60
2023-04-12T17:35:17.866Z,9.60
2023-04-12T17:37:45.839Z,10.00
2023-04-12T17:40:14.054Z,10.00
2023-04-12T17:42:42.820Z,9.33
2023-04-12T17:45:14.689Z,9.90
2023-04-12T17:47:42.688Z,8.20
2023-04-12T17:50:11.227Z,9.77
2023-04-12T17:52:38.865Z,9.93
2023-04-12T17:55:07.582Z,9.93
2023-04-12T17:57:34.679Z,7.93
2023-04-12T18:00:01.636Z,10.00
2023-04-12T18:02:28.937Z,8.63
2023-04-12T18:04:55.965Z,9.20
2023-04-12T18:07:23.144Z,11.30
2023-04-12T18:09:51.391Z,8.57
2023-04-12T18:12:18.493Z,13.17
2023-04-12T18:14:45.443Z,9.53
2023-04-12T18:17:12.413Z,9.67
2023-04-12T18:19:39.383Z,8.63
2023-04-12T18:22:06.364Z,11.30
2023-04-12T18:24:33.368Z,10.37
2023-04-12T18:27:01.572Z,12.07
2023-04-12T18:29:28.576Z,9.40
2023-04-12T18:31:55.869Z,11.10
2023-04-12T18:34:23.001Z,8.80
2023-04-12T18:36:50.054Z,8.77
2023-04-12T18:39:17.015Z,9.90
2023-04-12T18:41:43.874Z,8.90
2023-04-12T18:46:18.326Z,9.33
2023-04-12T18:48:46.942Z,9.60
2023-04-12T18:51:14.869Z,9.77
2023-04-12T18:53:41.863Z,14.63
2023-04-12T18:56:12.364Z,26.57
2023-04-12T18:58:53.990Z,26.97
2023-04-12T19:01:22.902Z,19.57
2023-04-12T19:03:50.205Z,11.33
2023-04-12T19:06:17.567Z,10.50
2023-04-12T19:08:44.568Z,10.53
2023-04-12T19:11:11.701Z,10.07
2023-04-12T19:13:38.605Z,11.27
2023-04-12T19:16:09.174Z,13.37
2023-04-12T19:18:36.187Z,10.20
2023-04-12T19:21:04.363Z,10.37
2023-04-12T19:23:31.620Z,10.07
2023-04-12T19:26:00.145Z,9.40
2023-04-12T19:28:27.931Z,9.83
2023-04-12T19:30:57.560Z,8.70
2023-04-12T19:33:25.484Z,11.77
2023-04-12T19:35:55.237Z,8.67
2023-04-12T19:38:22.257Z,10.67
2023-04-12T19:40:51.006Z,8.23
2023-04-12T19:43:21.106Z,9.30
2023-04-12T19:45:48.333Z,10.60
2023-04-12T19:48:17.074Z,8.50
2023-04-12T19:50:47.901Z,9.63
2023-04-12T19:53:18.156Z,9.47
2023-04-12T19:55:45.353Z,11.97
2023-04-12T19:58:13.591Z,11.00
2023-04-12T20:00:41.372Z,9.67
2023-04-12T20:03:09.472Z,11.37
2023-04-12T20:05:36.701Z,10.13
2023-04-12T20:08:03.882Z,8.33
2023-04-12T20:10:30.923Z,7.30
2023-04-12T20:12:57.956Z,8.60
2023-04-12T20:15:24.921Z,8.23
2023-04-12T20:17:52.796Z,9.13
2023-04-12T20:20:19.939Z,8.23
2023-04-12T20:22:51.765Z,8.43
2023-04-12T20:25:20.506Z,11.17
2023-04-12T20:27:51.847Z,7.07
2023-04-12T20:30:21.112Z,8.10
2023-04-12T20:32:49.363Z,9.63
2023-04-12T20:35:17.998Z,7.67
2023-04-12T20:37:49.503Z,8.90
2023-04-12T20:40:16.751Z,8.03
2023-04-12T20:42:45.075Z,11.33
2023-04-12T20:45:13.276Z,9.20
2023-04-12T20:47:40.489Z,10.90
2023-04-12T20:50:08.457Z,9.13
2023-04-12T20:52:35.484Z,8.77
2023-04-12T20:55:02.465Z,9.07
2023-04-12T20:57:30.215Z,9.57
2023-04-12T20:59:57.254Z,9.87
2023-04-12T21:02:24.371Z,11.23
2023-04-12T21:04:52.179Z,12.30
2023-04-12T21:07:20.264Z,15.10
2023-04-12T21:09:47.185Z,11.33
2023-04-12T21:12:15.095Z,11.73
2023-04-12T21:14:42.416Z,10.10
2023-04-12T21:17:09.486Z,14.30
2023-04-12T21:19:41.609Z,9.43
2023-04-12T21:22:08.795Z,12.73
2023-04-12T21:24:38.345Z,12.40
2023-04-12T21:27:08.514Z,9.93
2023-04-12T21:29:41.087Z,9.27
2023-04-12T21:32:09.259Z,11.20
2023-04-12T21:34:37.366Z,10.67
2023-04-12T21:37:05.457Z,9.17
2023-04-12T21:39:32.960Z,12.63
2023-04-12T21:41:59.904Z,9.23
2023-04-12T21:44:26.899Z,9.43
2023-04-12T21:46:53.793Z,8.80
2023-04-12T21:49:21.020Z,8.40
2023-04-12T21:51:49.197Z,9.77
2023-04-12T21:54:16.814Z,8.87
2023-04-12T21:56:43.839Z,8.03
2023-04-12T21:59:10.888Z,9.73
2023-04-12T22:01:38.103Z,8.63
2023-04-12T22:04:06.036Z,8.93
2023-04-12T22:06:33.132Z,8.97
2023-04-12T22:09:02.055Z,9.70
2023-04-12T22:11:30.576Z,9.27
2023-04-12T22:13:57.999Z,10.43
2023-04-12T22:16:25.169Z,9.53
2023-04-12T22:18:52.837Z,10.33
2023-04-12T22:21:19.840Z,11.63
2023-04-12T22:23:46.837Z,8.57
2023-04-12T22:26:14.009Z,11.53
2023-04-12T22:28:42.628Z,9.57
2023-04-12T22:31:16.296Z,9.57
2023-04-12T22:33:43.830Z,11.67
2023-04-12T22:36:10.996Z,8.90
2023-04-12T22:38:38.333Z,8.50
2023-04-12T22:41:06.193Z,8.13
2023-04-12T22:43:41.787Z,11.00
2023-04-12T22:46:15.924Z,10.50
2023-04-12T22:48:48.015Z,10.20
2023-04-12T22:51:15.657Z,8.47
2023-04-12T22:53:43.727Z,9.67
2023-04-12T22:56:11.340Z,7.90
2023-04-12T22:58:40.274Z,8.50
2023-04-12T23:01:07.561Z,9.63
2023-04-12T23:03:34.717Z,8.27
2023-04-12T23:06:02.070Z,9.67
2023-04-12T23:08:29.313Z,8.23
2023-04-12T23:11:02.757Z,8.90
2023-04-12T23:13:33.858Z,9.87
2023-04-12T23:16:05.471Z,9.87
2023-04-12T23:18:32.887Z,12.30
2023-04-12T23:21:01.588Z,12.37
2023-04-12T23:23:28.721Z,9.37
2023-04-12T23:25:55.659Z,8.17
2023-04-12T23:28:24.385Z,11.27
2023-04-12T23:30:51.765Z,10.47
2023-04-12T23:33:20.603Z,12.63
2023-04-12T23:35:49.664Z,9.57
2023-04-12T23:38:23.164Z,8.90
2023-04-12T23:40:53.868Z,9.90
2023-04-12T23:43:22.894Z,11.50
2023-04-12T23:45:49.911Z,10.20
2023-04-12T23:48:16.942Z,8.07
2023-04-12T23:50:45.798Z,9.33
2023-04-12T23:53:13.136Z,8.73
2023-04-12T23:55:42.482Z,11.70
2023-04-12T23:58:10.539Z,8.77
